Terminal Aerodrome Forecast
Issued by NWS Spokane, WA

Home | Current Version | Previous Version | Text Only | Print | Product List | Glossary On
Versions: 1 2 3 4 5 6 7 8 9 10 11 12 13 14 15 16 17 18 19 20 21 22 23 24 25 26 27 28 29 30 31 32 33
000
FTUS46 KOTX 240520
TAFLWS
TAF
KLWS 240520Z 2406/2506 30012G18KT P6SM SCT060 BKN120
     FM241000 21010KT P6SM SCT080
     FM242000 31016G22KT P6SM SCT040 BKN070
     FM250400 21006KT P6SM SCT080=

USA.gov is the U.S. government's official web portal to all federal, state and local government web resources and services.